sensor_id;sensor_type;location;lat;lon;timestamp;P1;durP1;ratioP1;P2;durP2;ratioP2
77166;SDS011;66141;7.324;79.980;2022-12-29T00:00:00;8.60;;;4.20;;
77166;SDS011;66141;7.324;79.980;2022-12-29T00:00:06;8.82;;;4.05;;
77166;SDS011;66141;7.324;79.980;2022-12-29T00:00:13;8.50;;;3.86;;
77166;SDS011;66141;7.324;79.980;2022-12-29T00:00:18;8.40;;;3.87;;
77166;SDS011;66141;7.324;79.980;2022-12-29T00:00:24;8.75;;;4.13;;
77166;SDS011;66141;7.324;79.980;2022-12-29T00:00:30;8.47;;;4.10;;
77166;SDS011;66141;7.324;79.980;2022-12-29T00:00:36;8.60;;;4.18;;
77166;SDS011;66141;7.324;79.980;2022-12-29T00:00:42;8.43;;;4.03;;
77166;SDS011;66141;7.324;79.980;2022-12-29T00:00:48;8.25;;;4.00;;
77166;SDS011;66141;7.324;79.980;2022-12-29T00:00:53;7.47;;;3.72;;
77166;SDS011;66141;7.324;79.980;2022-12-29T00:01:00;7.43;;;3.77;;
77166;SDS011;66141;7.324;79.980;2022-12-29T00:01:06;6.66;;;3.80;;
77166;SDS011;66141;7.324;79.980;2022-12-29T00:01:12;7.20;;;3.95;;
77166;SDS011;66141;7.324;79.980;2022-12-29T00:01:18;8.70;;;4.20;;
77166;SDS011;66141;7.324;79.980;2022-12-29T00:01:24;8.15;;;4.25;;
77166;SDS011;66141;7.324;79.980;2022-12-29T00:01:29;7.70;;;4.20;;
77166;SDS011;66141;7.324;79.980;2022-12-29T00:01:35;7.68;;;4.10;;
77166;SDS011;66141;7.324;79.980;2022-12-29T00:01:41;7.35;;;3.97;;
77166;SDS011;66141;7.324;79.980;2022-12-29T00:01:47;6.38;;;3.92;;
77166;SDS011;66141;7.324;79.980;2022-12-29T00:01:53;6.43;;;4.03;;
77166;SDS011;66141;7.324;79.980;2022-12-29T00:02:00;6.73;;;4.17;;
77166;SDS011;66141;7.324;79.980;2022-12-29T00:02:06;6.93;;;4.50;;
77166;SDS011;66141;7.324;79.980;2022-12-29T00:02:12;6.83;;;4.47;;
77166;SDS011;66141;7.324;79.980;2022-12-29T00:02:18;5.90;;;4.27;;
77166;SDS011;66141;7.324;79.980;2022-12-29T00:02:24;6.18;;;4.38;;
77166;SDS011;66141;7.324;79.980;2022-12-29T00:02:30;6.15;;;4.32;;
77166;SDS011;66141;7.324;79.980;2022-12-29T00:02:36;5.97;;;4.03;;
77166;SDS011;66141;7.324;79.980;2022-12-29T00:02:41;6.63;;;4.30;;
77166;SDS011;66141;7.324;79.980;2022-12-29T00:02:47;6.72;;;4.30;;
77166;SDS011;66141;7.324;79.980;2022-12-29T00:02:53;6.40;;;4.10;;
77166;SDS011;66141;7.324;79.980;2022-12-29T00:02:59;6.13;;;4.17;;
77166;SDS011;66141;7.324;79.980;2022-12-29T00:03:05;6.10;;;4.10;;
77166;SDS011;66141;7.324;79.980;2022-12-29T00:03:10;5.43;;;3.97;;
77166;SDS011;66141;7.324;79.980;2022-12-29T00:03:16;7.30;;;3.92;;
77166;SDS011;66141;7.324;79.980;2022-12-29T00:03:22;8.55;;;3.97;;
77166;SDS011;66141;7.324;79.980;2022-12-29T00:03:28;9.27;;;3.93;;
77166;SDS011;66141;7.324;79.980;2022-12-29T00:03:34;9.38;;;3.95;;
77166;SDS011;66141;7.324;79.980;2022-12-29T00:03:39;10.18;;;4.00;;
77166;SDS011;66141;7.324;79.980;2022-12-29T00:03:46;8.73;;;4.05;;
77166;SDS011;66141;7.324;79.980;2022-12-29T00:03:52;6.65;;;4.03;;
77166;SDS011;66141;7.324;79.980;2022-12-29T00:03:58;5.93;;;3.90;;
77166;SDS011;66141;7.324;79.980;2022-12-29T00:04:04;5.93;;;4.00;;
77166;SDS011;66141;7.324;79.980;2022-12-29T00:04:11;5.57;;;4.10;;
77166;SDS011;66141;7.324;79.980;2022-12-29T00:04:17;5.70;;;4.02;;
77166;SDS011;66141;7.324;79.980;2022-12-29T00:04:23;6.03;;;4.13;;
77166;SDS011;66141;7.324;79.980;2022-12-29T00:04:29;6.03;;;4.05;;
77166;SDS011;66141;7.324;79.980;2022-12-29T00:04:35;5.85;;;4.00;;
77166;SDS011;66141;7.324;79.980;2022-12-29T00:04:41;6.38;;;4.07;;
77166;SDS011;66141;7.324;79.980;2022-12-29T00:04:46;6.82;;;4.30;;
77166;SDS011;66141;7.324;79.980;2022-12-29T00:04:54;7.03;;;4.20;;
77166;SDS011;66141;7.324;79.980;2022-12-29T00:05:00;7.72;;;4.63;;
77166;SDS011;66141;7.324;79.980;2022-12-29T00:05:06;8.20;;;4.90;;
77166;SDS011;66141;7.324;79.980;2022-12-29T00:05:12;7.83;;;4.70;;
77166;SDS011;66141;7.324;79.980;2022-12-29T00:05:18;7.97;;;4.57;;
77166;SDS011;66141;7.324;79.980;2022-12-29T00:05:23;8.13;;;4.78;;
77166;SDS011;66141;7.324;79.980;2022-12-29T00:05:29;7.77;;;4.47;;
77166;SDS011;66141;7.324;79.980;2022-12-29T00:05:35;7.65;;;4.13;;
77166;SDS011;66141;7.324;79.980;2022-12-29T00:05:41;6.95;;;4.03;;
77166;SDS011;66141;7.324;79.980;2022-12-29T00:05:53;6.65;;;4.00;;
77166;SDS011;66141;7.324;79.980;2022-12-29T00:05:59;6.14;;;3.78;;
77166;SDS011;66141;7.324;79.980;2022-12-29T00:06:06;5.53;;;3.70;;
77166;SDS011;66141;7.324;79.980;2022-12-29T00:06:11;5.97;;;3.73;;
77166;SDS011;66141;7.324;79.980;2022-12-29T00:06:17;6.20;;;3.80;;
77166;SDS011;66141;7.324;79.980;2022-12-29T00:06:23;5.78;;;3.78;;
77166;SDS011;66141;7.324;79.980;2022-12-29T00:06:29;5.97;;;3.92;;
77166;SDS011;66141;7.324;79.980;2022-12-29T00:06:36;6.28;;;4.05;;
77166;SDS011;66141;7.324;79.980;2022-12-29T00:06:42;6.15;;;3.97;;
77166;SDS011;66141;7.324;79.980;2022-12-29T00:06:48;5.87;;;3.90;;
77166;SDS011;66141;7.324;79.980;2022-12-29T00:06:54;6.23;;;4.10;;
77166;SDS011;66141;7.324;79.980;2022-12-29T00:07:00;6.68;;;4.10;;
77166;SDS011;66141;7.324;79.980;2022-12-29T00:07:06;6.80;;;4.07;;
77166;SDS011;66141;7.324;79.980;2022-12-29T00:07:12;6.72;;;4.15;;
77166;SDS011;66141;7.324;79.980;2022-12-29T00:07:18;6.97;;;4.38;;
77166;SDS011;66141;7.324;79.980;2022-12-29T00:07:24;7.25;;;4.35;;
77166;SDS011;66141;7.324;79.980;2022-12-29T00:07:29;7.15;;;4.57;;
77166;SDS011;66141;7.324;79.980;2022-12-29T00:07:35;7.78;;;4.72;;
77166;SDS011;66141;7.324;79.980;2022-12-29T00:07:41;7.97;;;4.78;;
77166;SDS011;66141;7.324;79.980;2022-12-29T00:07:47;8.07;;;4.60;;
77166;SDS011;66141;7.324;79.980;2022-12-29T00:07:53;7.65;;;4.63;;
77166;SDS011;66141;7.324;79.980;2022-12-29T00:07:58;7.43;;;4.30;;
77166;SDS011;66141;7.324;79.980;2022-12-29T00:08:04;6.63;;;4.13;;
77166;SDS011;66141;7.324;79.980;2022-12-29T00:08:10;6.07;;;4.07;;
77166;SDS011;66141;7.324;79.980;2022-12-29T00:08:16;5.70;;;3.95;;
77166;SDS011;66141;7.324;79.980;2022-12-29T00:08:22;5.80;;;4.00;;
77166;SDS011;66141;7.324;79.980;2022-12-29T00:08:44;6.20;;;4.11;;
77166;SDS011;66141;7.324;79.980;2022-12-29T00:08:50;6.82;;;4.28;;
77166;SDS011;66141;7.324;79.980;2022-12-29T00:08:55;6.80;;;4.40;;
77166;SDS011;66141;7.324;79.980;2022-12-29T00:09:01;6.38;;;4.35;;
77166;SDS011;66141;7.324;79.980;2022-12-29T00:09:07;5.97;;;4.27;;
77166;SDS011;66141;7.324;79.980;2022-12-29T00:09:14;6.07;;;4.30;;
77166;SDS011;66141;7.324;79.980;2022-12-29T00:09:21;5.85;;;4.32;;
77166;SDS011;66141;7.324;79.980;2022-12-29T00:09:26;5.85;;;4.25;;
77166;SDS011;66141;7.324;79.980;2022-12-29T00:09:33;6.03;;;4.20;;
77166;SDS011;66141;7.324;79.980;2022-12-29T00:09:39;7.07;;;4.73;;
77166;SDS011;66141;7.324;79.980;2022-12-29T00:09:45;7.50;;;4.70;;
77166;SDS011;66141;7.324;79.980;2022-12-29T00:09:50;8.32;;;4.68;;
77166;SDS011;66141;7.324;79.980;2022-12-29T00:09:56;8.57;;;4.80;;
77166;SDS011;66141;7.324;79.980;2022-12-29T00:10:02;8.68;;;5.15;;
77166;SDS011;66141;7.324;79.980;2022-12-29T00:10:08;8.20;;;4.65;;
77166;SDS011;66141;7.324;79.980;2022-12-29T00:10:14;8.68;;;4.68;;
77166;SDS011;66141;7.324;79.980;2022-12-29T00:10:20;9.27;;;4.78;;
77166;SDS011;66141;7.324;79.980;2022-12-29T00:10:25;8.83;;;4.70;;
77166;SDS011;66141;7.324;79.980;2022-12-29T00:10:31;8.50;;;4.53;;
77166;SDS011;66141;7.324;79.980;2022-12-29T00:10:38;8.28;;;4.46;;
77166;SDS011;66141;7.324;79.980;2022-12-29T00:10:44;7.70;;;4.72;;
77166;SDS011;66141;7.324;79.980;2022-12-29T00:10:49;7.20;;;4.53;;
77166;SDS011;66141;7.324;79.980;2022-12-29T00:10:55;7.80;;;4.75;;
77166;SDS011;66141;7.324;79.980;2022-12-29T00:11:01;8.27;;;4.80;;
77166;SDS011;66141;7.324;79.980;2022-12-29T00:11:17;8.00;;;5.00;;
77166;SDS011;66141;7.324;79.980;2022-12-29T00:11:24;7.63;;;4.61;;
77166;SDS011;66141;7.324;79.980;2022-12-29T00:11:30;7.80;;;4.30;;
77166;SDS011;66141;7.324;79.980;2022-12-29T00:11:36;8.50;;;4.50;;
77166;SDS011;66141;7.324;79.980;2022-12-29T00:11:42;9.32;;;4.68;;
77166;SDS011;66141;7.324;79.980;2022-12-29T00:11:48;10.30;;;4.77;;
77166;SDS011;66141;7.324;79.980;2022-12-29T00:11:55;10.68;;;4.80;;
77166;SDS011;66141;7.324;79.980;2022-12-29T00:12:01;9.57;;;4.63;;
77166;SDS011;66141;7.324;79.980;2022-12-29T00:12:08;9.42;;;4.46;;
77166;SDS011;66141;7.324;79.980;2022-12-29T00:12:14;8.25;;;4.10;;
77166;SDS011;66141;7.324;79.980;2022-12-29T00:12:20;7.38;;;4.13;;
77166;SDS011;66141;7.324;79.980;2022-12-29T00:12:25;6.95;;;4.07;;
77166;SDS011;66141;7.324;79.980;2022-12-29T00:12:51;7.53;;;4.41;;
77166;SDS011;66141;7.324;79.980;2022-12-29T00:13:15;8.60;;;4.70;;
77166;SDS011;66141;7.324;79.980;2022-12-29T00:13:56;9.23;;;4.61;;
77166;SDS011;66141;7.324;79.980;2022-12-29T00:14:20;10.18;;;4.63;;
77166;SDS011;66141;7.324;79.980;2022-12-29T00:14:44;7.51;;;4.50;;
77166;SDS011;66141;7.324;79.980;2022-12-29T00:15:08;6.65;;;4.39;;
77166;SDS011;66141;7.324;79.980;2022-12-29T00:15:32;6.61;;;4.29;;
77166;SDS011;66141;7.324;79.980;2022-12-29T00:15:43;8.74;;;4.13;;
77166;SDS011;66141;7.324;79.980;2022-12-29T00:15:49;8.82;;;4.20;;
77166;SDS011;66141;7.324;79.980;2022-12-29T00:15:55;8.73;;;4.23;;
77166;SDS011;66141;7.324;79.980;2022-12-29T00:16:01;8.32;;;4.22;;
77166;SDS011;66141;7.324;79.980;2022-12-29T00:16:07;8.05;;;4.40;;
77166;SDS011;66141;7.324;79.980;2022-12-29T00:16:12;8.23;;;4.63;;
77166;SDS011;66141;7.324;79.980;2022-12-29T00:16:18;8.38;;;4.75;;
77166;SDS011;66141;7.324;79.980;2022-12-29T00:16:24;8.60;;;5.00;;
77166;SDS011;66141;7.324;79.980;2022-12-29T00:16:30;8.32;;;5.10;;
77166;SDS011;66141;7.324;79.980;2022-12-29T00:16:36;7.53;;;4.87;;
77166;SDS011;66141;7.324;79.980;2022-12-29T00:16:43;7.80;;;4.90;;
77166;SDS011;66141;7.324;79.980;2022-12-29T00:16:50;8.63;;;5.03;;
77166;SDS011;66141;7.324;79.980;2022-12-29T00:16:55;9.00;;;5.00;;
77166;SDS011;66141;7.324;79.980;2022-12-29T00:17:01;8.73;;;5.00;;
77166;SDS011;66141;7.324;79.980;2022-12-29T00:17:07;8.45;;;5.10;;
77166;SDS011;66141;7.324;79.980;2022-12-29T00:17:13;9.37;;;5.20;;
77166;SDS011;66141;7.324;79.980;2022-12-29T00:17:19;9.75;;;4.97;;
77166;SDS011;66141;7.324;79.980;2022-12-29T00:17:25;9.75;;;4.82;;
77166;SDS011;66141;7.324;79.980;2022-12-29T00:17:30;10.02;;;4.75;;
77166;SDS011;66141;7.324;79.980;2022-12-29T00:17:36;10.10;;;4.72;;
77166;SDS011;66141;7.324;79.980;2022-12-29T00:17:42;9.60;;;4.60;;
77166;SDS011;66141;7.324;79.980;2022-12-29T00:17:48;8.90;;;4.78;;
77166;SDS011;66141;7.324;79.980;2022-12-29T00:17:54;7.47;;;4.70;;
77166;SDS011;66141;7.324;79.980;2022-12-29T00:17:59;7.07;;;4.65;;
77166;SDS011;66141;7.324;79.980;2022-12-29T00:18:06;7.30;;;4.67;;
77166;SDS011;66141;7.324;79.980;2022-12-29T00:18:12;6.64;;;4.58;;
77166;SDS011;66141;7.324;79.980;2022-12-29T00:18:18;6.70;;;4.55;;
77166;SDS011;66141;7.324;79.980;2022-12-29T00:18:23;7.88;;;4.57;;
77166;SDS011;66141;7.324;79.980;2022-12-29T00:18:30;8.63;;;4.63;;
77166;SDS011;66141;7.324;79.980;2022-12-29T00:18:36;8.32;;;4.70;;
77166;SDS011;66141;7.324;79.980;2022-12-29T00:18:42;9.77;;;4.95;;
77166;SDS011;66141;7.324;79.980;2022-12-29T00:18:48;12.23;;;5.17;;
77166;SDS011;66141;7.324;79.980;2022-12-29T00:18:54;12.17;;;5.37;;
77166;SDS011;66141;7.324;79.980;2022-12-29T00:19:00;11.73;;;5.43;;
77166;SDS011;66141;7.324;79.980;2022-12-29T00:19:05;12.80;;;5.63;;
77166;SDS011;66141;7.324;79.980;2022-12-29T00:19:11;12.25;;;5.43;;
77166;SDS011;66141;7.324;79.980;2022-12-29T00:19:35;8.80;;;4.80;;
77166;SDS011;66141;7.324;79.980;2022-12-29T00:19:59;8.46;;;4.56;;
77166;SDS011;66141;7.324;79.980;2022-12-29T00:20:23;8.48;;;4.51;;
77166;SDS011;66141;7.324;79.980;2022-12-29T00:20:47;8.20;;;5.01;;
77166;SDS011;66141;7.324;79.980;2022-12-29T00:21:14;8.93;;;5.22;;
77166;SDS011;66141;7.324;79.980;2022-12-29T00:21:38;9.75;;;4.68;;
77166;SDS011;66141;7.324;79.980;2022-12-29T00:22:02;9.74;;;4.74;;
77166;SDS011;66141;7.324;79.980;2022-12-29T00:22:26;11.13;;;5.16;;
77166;SDS011;66141;7.324;79.980;2022-12-29T00:22:50;9.79;;;4.86;;
77166;SDS011;66141;7.324;79.980;2022-12-29T00:23:14;7.19;;;4.63;;
77166;SDS011;66141;7.324;79.980;2022-12-29T00:23:38;7.90;;;4.88;;
77166;SDS011;66141;7.324;79.980;2022-12-29T00:24:01;10.54;;;5.03;;
77166;SDS011;66141;7.324;79.980;2022-12-29T00:24:25;10.99;;;5.01;;
77166;SDS011;66141;7.324;79.980;2022-12-29T00:24:31;8.52;;;4.80;;
77166;SDS011;66141;7.324;79.980;2022-12-29T00:24:55;7.44;;;4.70;;
77166;SDS011;66141;7.324;79.980;2022-12-29T00:25:07;6.49;;;4.64;;
77166;SDS011;66141;7.324;79.980;2022-12-29T00:25:32;7.43;;;4.56;;
77166;SDS011;66141;7.324;79.980;2022-12-29T00:25:56;9.14;;;4.79;;
77166;SDS011;66141;7.324;79.980;2022-12-29T00:26:20;10.29;;;5.01;;
77166;SDS011;66141;7.324;79.980;2022-12-29T00:26:43;10.20;;;5.30;;
77166;SDS011;66141;7.324;79.980;2022-12-29T00:27:11;10.74;;;5.22;;
77166;SDS011;66141;7.324;79.980;2022-12-29T00:27:36;10.86;;;5.24;;
77166;SDS011;66141;7.324;79.980;2022-12-29T00:28:00;11.85;;;5.51;;
77166;SDS011;66141;7.324;79.980;2022-12-29T00:28:24;11.32;;;5.30;;
77166;SDS011;66141;7.324;79.980;2022-12-29T00:28:48;13.32;;;5.76;;
77166;SDS011;66141;7.324;79.980;2022-12-29T00:29:13;12.15;;;5.69;;
77166;SDS011;66141;7.324;79.980;2022-12-29T00:29:37;10.13;;;5.24;;
77166;SDS011;66141;7.324;79.980;2022-12-29T00:30:01;12.88;;;5.82;;
77166;SDS011;66141;7.324;79.980;2022-12-29T00:30:25;12.21;;;5.80;;
77166;SDS011;66141;7.324;79.980;2022-12-29T00:30:49;12.60;;;5.95;;
77166;SDS011;66141;7.324;79.980;2022-12-29T00:31:13;11.70;;;5.45;;
77166;SDS011;66141;7.324;79.980;2022-12-29T00:31:36;12.69;;;5.70;;
77166;SDS011;66141;7.324;79.980;2022-12-29T00:32:00;11.41;;;5.74;;
77166;SDS011;66141;7.324;79.980;2022-12-29T00:32:24;10.51;;;5.45;;
77166;SDS011;66141;7.324;79.980;2022-12-29T00:32:48;13.24;;;5.81;;
77166;SDS011;66141;7.324;79.980;2022-12-29T00:33:16;12.88;;;5.81;;
77166;SDS011;66141;7.324;79.980;2022-12-29T00:33:40;11.27;;;5.53;;
77166;SDS011;66141;7.324;79.980;2022-12-29T00:34:04;12.45;;;6.00;;
77166;SDS011;66141;7.324;79.980;2022-12-29T00:34:28;11.32;;;5.63;;
77166;SDS011;66141;7.324;79.980;2022-12-29T00:34:52;11.95;;;5.32;;
77166;SDS011;66141;7.324;79.980;2022-12-29T00:35:44;16.64;;;7.55;;
77166;SDS011;66141;7.324;79.980;2022-12-29T00:35:52;15.26;;;7.12;;
77166;SDS011;66141;7.324;79.980;2022-12-29T00:36:03;13.43;;;6.38;;
77166;SDS011;66141;7.324;79.980;2022-12-29T00:36:15;13.42;;;6.66;;
77166;SDS011;66141;7.324;79.980;2022-12-29T00:36:38;15.37;;;6.64;;
77166;SDS011;66141;7.324;79.980;2022-12-29T00:36:44;16.69;;;6.74;;
77166;SDS011;66141;7.324;79.980;2022-12-29T00:36:50;19.02;;;7.22;;
77166;SDS011;66141;7.324;79.980;2022-12-29T00:36:56;17.90;;;7.13;;
77166;SDS011;66141;7.324;79.980;2022-12-29T00:37:02;16.30;;;7.22;;
77166;SDS011;66141;7.324;79.980;2022-12-29T00:37:08;15.27;;;7.20;;
77166;SDS011;66141;7.324;79.980;2022-12-29T00:37:14;16.00;;;7.23;;
77166;SDS011;66141;7.324;79.980;2022-12-29T00:37:19;14.35;;;6.88;;
77166;SDS011;66141;7.324;79.980;2022-12-29T00:37:46;14.71;;;6.97;;
77166;SDS011;66141;7.324;79.980;2022-12-29T00:38:11;14.14;;;6.93;;
77166;SDS011;66141;7.324;79.980;2022-12-29T00:38:37;13.81;;;6.81;;
77166;SDS011;66141;7.324;79.980;2022-12-29T00:39:12;14.79;;;7.25;;
77166;SDS011;66141;7.324;79.980;2022-12-29T00:39:37;15.81;;;7.38;;
77166;SDS011;66141;7.324;79.980;2022-12-29T00:40:01;17.46;;;7.51;;
77166;SDS011;66141;7.324;79.980;2022-12-29T00:40:25;16.69;;;7.16;;
77166;SDS011;66141;7.324;79.980;2022-12-29T00:40:49;20.73;;;7.63;;
77166;SDS011;66141;7.324;79.980;2022-12-29T00:41:13;19.30;;;7.81;;
77166;SDS011;66141;7.324;79.980;2022-12-29T00:41:37;17.95;;;8.00;;
77166;SDS011;66141;7.324;79.980;2022-12-29T00:42:04;16.25;;;7.80;;
77166;SDS011;66141;7.324;79.980;2022-12-29T00:42:33;17.95;;;7.38;;
77166;SDS011;66141;7.324;79.980;2022-12-29T00:42:58;15.76;;;6.70;;
77166;SDS011;66141;7.324;79.980;2022-12-29T00:43:21;14.94;;;6.60;;
77166;SDS011;66141;7.324;79.980;2022-12-29T00:43:45;15.14;;;6.69;;
77166;SDS011;66141;7.324;79.980;2022-12-29T00:44:10;14.34;;;7.14;;
77166;SDS011;66141;7.324;79.980;2022-12-29T00:44:16;15.54;;;7.70;;
77166;SDS011;66141;7.324;79.980;2022-12-29T00:44:22;15.05;;;7.55;;
77166;SDS011;66141;7.324;79.980;2022-12-29T00:44:28;14.27;;;7.55;;
77166;SDS011;66141;7.324;79.980;2022-12-29T00:44:33;16.10;;;7.80;;
77166;SDS011;66141;7.324;79.980;2022-12-29T00:44:39;15.55;;;7.45;;
77166;SDS011;66141;7.324;79.980;2022-12-29T00:44:45;15.25;;;7.32;;
77166;SDS011;66141;7.324;79.980;2022-12-29T00:44:51;16.67;;;7.38;;
77166;SDS011;66141;7.324;79.980;2022-12-29T00:44:57;18.00;;;7.55;;
77166;SDS011;66141;7.324;79.980;2022-12-29T00:45:02;17.53;;;7.53;;
77166;SDS011;66141;7.324;79.980;2022-12-29T00:45:08;17.40;;;7.63;;
77166;SDS011;66141;7.324;79.980;2022-12-29T00:45:14;18.75;;;7.72;;
77166;SDS011;66141;7.324;79.980;2022-12-29T00:45:20;17.77;;;8.18;;
77166;SDS011;66141;7.324;79.980;2022-12-29T00:45:26;16.65;;;8.15;;
77166;SDS011;66141;7.324;79.980;2022-12-29T00:45:32;15.10;;;7.65;;
77166;SDS011;66141;7.324;79.980;2022-12-29T00:45:39;15.30;;;7.80;;
77166;SDS011;66141;7.324;79.980;2022-12-29T00:45:45;15.87;;;7.87;;
77166;SDS011;66141;7.324;79.980;2022-12-29T00:45:51;16.05;;;7.20;;
77166;SDS011;66141;7.324;79.980;2022-12-29T00:45:57;16.48;;;7.57;;
77166;SDS011;66141;7.324;79.980;2022-12-29T00:46:03;16.75;;;7.90;;
77166;SDS011;66141;7.324;79.980;2022-12-29T00:46:09;16.37;;;7.80;;
77166;SDS011;66141;7.324;79.980;2022-12-29T00:46:14;15.43;;;7.43;;
77166;SDS011;66141;7.324;79.980;2022-12-29T00:46:20;16.70;;;7.70;;
77166;SDS011;66141;7.324;79.980;2022-12-29T00:46:26;17.05;;;7.47;;
77166;SDS011;66141;7.324;79.980;2022-12-29T00:46:39;18.83;;;7.55;;
77166;SDS011;66141;7.324;79.980;2022-12-29T00:46:45;19.69;;;7.57;;
77166;SDS011;66141;7.324;79.980;2022-12-29T00:46:51;18.20;;;7.50;;
77166;SDS011;66141;7.324;79.980;2022-12-29T00:46:56;18.60;;;7.53;;
77166;SDS011;66141;7.324;79.980;2022-12-29T00:47:02;18.25;;;7.28;;
77166;SDS011;66141;7.324;79.980;2022-12-29T00:47:09;17.77;;;7.17;;
77166;SDS011;66141;7.324;79.980;2022-12-29T00:47:15;18.03;;;7.30;;
77166;SDS011;66141;7.324;79.980;2022-12-29T00:47:21;17.70;;;7.50;;
77166;SDS011;66141;7.324;79.980;2022-12-29T00:47:26;17.45;;;7.75;;
77166;SDS011;66141;7.324;79.980;2022-12-29T00:47:32;16.88;;;7.65;;
77166;SDS011;66141;7.324;79.980;2022-12-29T00:47:38;16.20;;;7.77;;
77166;SDS011;66141;7.324;79.980;2022-12-29T00:47:44;16.17;;;7.72;;
77166;SDS011;66141;7.324;79.980;2022-12-29T00:47:50;16.02;;;7.40;;
77166;SDS011;66141;7.324;79.980;2022-12-29T00:47:55;16.15;;;7.55;;
77166;SDS011;66141;7.324;79.980;2022-12-29T00:48:01;17.13;;;8.03;;
77166;SDS011;66141;7.324;79.980;2022-12-29T00:48:07;17.73;;;7.93;;
77166;SDS011;66141;7.324;79.980;2022-12-29T00:48:13;17.40;;;7.88;;
77166;SDS011;66141;7.324;79.980;2022-12-29T00:48:19;17.35;;;7.88;;
77166;SDS011;66141;7.324;79.980;2022-12-29T00:48:44;16.88;;;7.16;;
77166;SDS011;66141;7.324;79.980;2022-12-29T00:49:09;17.99;;;7.75;;
77166;SDS011;66141;7.324;79.980;2022-12-29T00:49:36;19.11;;;8.77;;
77166;SDS011;66141;7.324;79.980;2022-12-29T00:49:42;16.92;;;8.52;;
77166;SDS011;66141;7.324;79.980;2022-12-29T00:49:48;17.45;;;8.32;;
77166;SDS011;66141;7.324;79.980;2022-12-29T00:49:54;17.17;;;8.00;;
77166;SDS011;66141;7.324;79.980;2022-12-29T00:49:59;16.80;;;8.07;;
77166;SDS011;66141;7.324;79.980;2022-12-29T00:50:05;14.38;;;7.00;;
77166;SDS011;66141;7.324;79.980;2022-12-29T00:50:11;13.27;;;6.60;;
77166;SDS011;66141;7.324;79.980;2022-12-29T00:50:17;12.75;;;6.75;;
77166;SDS011;66141;7.324;79.980;2022-12-29T00:50:23;13.35;;;7.20;;
77166;SDS011;66141;7.324;79.980;2022-12-29T00:50:29;14.80;;;7.10;;
77166;SDS011;66141;7.324;79.980;2022-12-29T00:50:34;15.65;;;7.15;;
77166;SDS011;66141;7.324;79.980;2022-12-29T00:50:40;16.38;;;7.07;;
77166;SDS011;66141;7.324;79.980;2022-12-29T00:50:46;16.55;;;6.90;;
77166;SDS011;66141;7.324;79.980;2022-12-29T00:50:55;16.23;;;6.57;;
77166;SDS011;66141;7.324;79.980;2022-12-29T00:51:01;16.01;;;6.74;;
77166;SDS011;66141;7.324;79.980;2022-12-29T00:51:07;15.68;;;7.05;;
77166;SDS011;66141;7.324;79.980;2022-12-29T00:51:12;16.83;;;7.00;;
77166;SDS011;66141;7.324;79.980;2022-12-29T00:51:18;15.50;;;6.85;;
77166;SDS011;66141;7.324;79.980;2022-12-29T00:51:24;14.68;;;6.93;;
77166;SDS011;66141;7.324;79.980;2022-12-29T00:51:30;13.60;;;7.13;;
77166;SDS011;66141;7.324;79.980;2022-12-29T00:51:36;13.38;;;6.90;;
77166;SDS011;66141;7.324;79.980;2022-12-29T00:51:41;12.73;;;6.97;;
77166;SDS011;66141;7.324;79.980;2022-12-29T00:51:47;12.65;;;7.28;;
77166;SDS011;66141;7.324;79.980;2022-12-29T00:51:54;13.47;;;7.53;;
77166;SDS011;66141;7.324;79.980;2022-12-29T00:52:10;13.69;;;7.53;;
77166;SDS011;66141;7.324;79.980;2022-12-29T00:52:17;13.58;;;7.57;;
77166;SDS011;66141;7.324;79.980;2022-12-29T00:52:22;13.52;;;7.07;;
77166;SDS011;66141;7.324;79.980;2022-12-29T00:52:28;14.43;;;7.20;;
77166;SDS011;66141;7.324;79.980;2022-12-29T00:52:34;14.50;;;7.13;;
77166;SDS011;66141;7.324;79.980;2022-12-29T00:52:40;15.77;;;7.28;;
77166;SDS011;66141;7.324;79.980;2022-12-29T00:52:46;15.85;;;6.97;;
77166;SDS011;66141;7.324;79.980;2022-12-29T00:52:51;16.58;;;6.93;;
77166;SDS011;66141;7.324;79.980;2022-12-29T00:52:57;16.00;;;6.83;;
77166;SDS011;66141;7.324;79.980;2022-12-29T00:53:03;16.40;;;6.93;;
77166;SDS011;66141;7.324;79.980;2022-12-29T00:53:09;16.63;;;6.80;;
77166;SDS011;66141;7.324;79.980;2022-12-29T00:53:15;16.02;;;7.13;;
77166;SDS011;66141;7.324;79.980;2022-12-29T00:53:20;16.60;;;7.53;;
77166;SDS011;66141;7.324;79.980;2022-12-29T00:53:26;16.17;;;7.60;;
77166;SDS011;66141;7.324;79.980;2022-12-29T00:53:32;15.60;;;7.40;;
77166;SDS011;66141;7.324;79.980;2022-12-29T00:53:38;14.30;;;7.10;;
77166;SDS011;66141;7.324;79.980;2022-12-29T00:53:44;15.95;;;7.50;;
77166;SDS011;66141;7.324;79.980;2022-12-29T00:53:50;14.70;;;7.32;;
77166;SDS011;66141;7.324;79.980;2022-12-29T00:53:56;14.80;;;7.32;;
77166;SDS011;66141;7.324;79.980;2022-12-29T00:54:01;14.87;;;7.40;;
77166;SDS011;66141;7.324;79.980;2022-12-29T00:54:07;15.23;;;7.60;;
77166;SDS011;66141;7.324;79.980;2022-12-29T00:54:13;16.15;;;7.43;;
77166;SDS011;66141;7.324;79.980;2022-12-29T00:54:19;16.85;;;7.25;;
77166;SDS011;66141;7.324;79.980;2022-12-29T00:54:26;18.38;;;7.15;;
77166;SDS011;66141;7.324;79.980;2022-12-29T00:54:33;19.20;;;7.22;;
77166;SDS011;66141;7.324;79.980;2022-12-29T00:54:39;18.46;;;7.12;;
77166;SDS011;66141;7.324;79.980;2022-12-29T00:54:45;15.43;;;6.82;;
77166;SDS011;66141;7.324;79.980;2022-12-29T00:54:51;13.90;;;6.72;;
77166;SDS011;66141;7.324;79.980;2022-12-29T00:54:57;12.90;;;6.78;;
77166;SDS011;66141;7.324;79.980;2022-12-29T00:55:03;11.77;;;6.47;;
77166;SDS011;66141;7.324;79.980;2022-12-29T00:55:09;13.47;;;6.73;;
77166;SDS011;66141;7.324;79.980;2022-12-29T00:55:15;15.00;;;6.97;;
77166;SDS011;66141;7.324;79.980;2022-12-29T00:55:20;15.98;;;7.43;;
77166;SDS011;66141;7.324;79.980;2022-12-29T00:55:26;16.52;;;7.53;;
77166;SDS011;66141;7.324;79.980;2022-12-29T00:55:35;17.08;;;7.78;;
77166;SDS011;66141;7.324;79.980;2022-12-29T00:55:41;17.37;;;7.63;;
77166;SDS011;66141;7.324;79.980;2022-12-29T00:55:47;18.03;;;7.47;;
77166;SDS011;66141;7.324;79.980;2022-12-29T00:55:53;17.92;;;7.43;;
77166;SDS011;66141;7.324;79.980;2022-12-29T00:55:59;17.13;;;7.40;;
77166;SDS011;66141;7.324;79.980;2022-12-29T00:56:05;16.88;;;7.43;;
77166;SDS011;66141;7.324;79.980;2022-12-29T00:56:11;16.13;;;7.63;;
77166;SDS011;66141;7.324;79.980;2022-12-29T00:56:16;14.35;;;7.43;;
77166;SDS011;66141;7.324;79.980;2022-12-29T00:56:22;13.60;;;7.10;;
77166;SDS011;66141;7.324;79.980;2022-12-29T00:56:28;13.10;;;7.03;;
77166;SDS011;66141;7.324;79.980;2022-12-29T00:56:34;12.43;;;7.05;;
77166;SDS011;66141;7.324;79.980;2022-12-29T00:56:40;11.82;;;6.80;;
77166;SDS011;66141;7.324;79.980;2022-12-29T00:56:49;12.60;;;7.05;;
77166;SDS011;66141;7.324;79.980;2022-12-29T00:56:55;15.03;;;7.46;;
77166;SDS011;66141;7.324;79.980;2022-12-29T00:57:01;16.52;;;7.75;;
77166;SDS011;66141;7.324;79.980;2022-12-29T00:57:08;18.57;;;8.53;;
77166;SDS011;66141;7.324;79.980;2022-12-29T00:57:14;18.92;;;8.63;;
77166;SDS011;66141;7.324;79.980;2022-12-29T00:57:20;17.07;;;8.30;;
77166;SDS011;66141;7.324;79.980;2022-12-29T00:57:26;16.77;;;8.32;;
77166;SDS011;66141;7.324;79.980;2022-12-29T00:57:32;16.60;;;7.95;;
77166;SDS011;66141;7.324;79.980;2022-12-29T00:57:38;15.23;;;7.30;;
77166;SDS011;66141;7.324;79.980;2022-12-29T00:57:43;14.83;;;7.23;;
77166;SDS011;66141;7.324;79.980;2022-12-29T00:57:49;16.30;;;7.43;;
77166;SDS011;66141;7.324;79.980;2022-12-29T00:57:55;15.90;;;7.50;;
77166;SDS011;66141;7.324;79.980;2022-12-29T00:58:01;15.80;;;7.28;;
77166;SDS011;66141;7.324;79.980;2022-12-29T00:58:07;16.52;;;7.30;;
77166;SDS011;66141;7.324;79.980;2022-12-29T00:58:12;16.83;;;7.30;;